Time;durP1;ratioP1;P1;durP2;ratioP2;P2;SDS_P1;SDS_P2;PMS_P1;PMS_P2;Temp;Humidity;BMP_temperature;BMP_pressure;BME280_temperature;BME280_humidity;BME280_pressure;Samples;Min_cycle;Max_cycle;Signal;HPM_P1;HPM_P2
2023/10/09 00:01:46;;;;;;;0.00;0.00;;;13.20;99.90;;;;;;5090853;28;20183;-61
2023/10/09 00:04:11;;;;;;;0.00;0.00;;;13.10;99.90;;;;;;5090742;28;20223;-61
2023/10/09 00:06:37;;;;;;;0.00;0.00;;;13.10;99.90;;;;;;5092095;28;20183;-61
2023/10/09 00:11:48;;;;;;;0.00;0.00;;;13.10;99.90;;;;;;5080654;28;20195;-62
2023/10/09 00:14:18;;;;;;;0.00;0.00;;;13.10;99.90;;;;;;5094979;28;20172;-62
2023/10/09 00:16:48;;;;;;;0.00;0.00;;;13.10;99.90;;;;;;5094877;28;20214;-61
2023/10/09 00:21:47;;;;;;;0.00;0.00;;;13.10;99.90;;;;;;5094817;28;20184;-62
2023/10/09 00:24:13;;;;;;;0.00;0.00;;;13.00;99.90;;;;;;5094696;28;20200;-62
2023/10/09 00:26:49;;;;;;;0.00;0.00;;;13.00;99.90;;;;;;5094721;28;20176;-62
2023/10/09 00:29:21;;;;;;;0.00;0.00;;;13.00;99.90;;;;;;5094440;28;20188;-62
2023/10/09 00:31:51;;;;;;;0.13;0.13;;;13.00;99.90;;;;;;5094523;28;20180;-61
2023/10/09 00:34:21;;;;;;;0.00;0.00;;;13.00;99.90;;;;;;5094607;28;20176;-61
2023/10/09 00:36:50;;;;;;;0.08;0.08;;;13.00;99.90;;;;;;5094447;28;20182;-61
2023/10/09 00:39:41;;;;;;;0.00;0.00;;;13.00;99.90;;;;;;5087846;28;20560;-61
2023/10/09 00:42:07;;;;;;;0.00;0.00;;;13.00;99.90;;;;;;5094526;28;20275;-61
2023/10/09 00:44:39;;;;;;;0.00;0.00;;;13.00;99.90;;;;;;5094132;28;20219;-61
2023/10/09 00:47:20;;;;;;;0.05;0.05;;;12.90;99.90;;;;;;5094282;28;20191;-61
2023/10/09 00:50:00;;;;;;;0.00;0.00;;;12.90;99.90;;;;;;5094060;28;20187;-61
2023/10/09 00:52:32;;;;;;;0.00;0.00;;;12.90;99.90;;;;;;5094104;28;20550;-61
2023/10/09 00:55:07;;;;;;;0.00;0.00;;;12.80;99.90;;;;;;5094209;28;20184;-61
2023/10/09 00:57:37;;;;;;;0.00;0.00;;;12.80;99.90;;;;;;5093686;28;20220;-61
2023/10/09 01:00:13;;;;;;;0.00;0.00;;;12.80;99.90;;;;;;5093864;28;20666;-61
2023/10/09 01:02:42;;;;;;;0.10;0.10;;;12.80;99.90;;;;;;5093960;28;20535;-61
2023/10/09 01:05:18;;;;;;;0.00;0.00;;;12.70;99.90;;;;;;5093639;28;20226;-61
2023/10/09 01:07:46;;;;;;;0.00;0.00;;;12.70;99.90;;;;;;5077861;28;20175;-61
2023/10/09 01:10:11;;;;;;;0.10;0.10;;;12.70;99.90;;;;;;5072319;28;20176;-61
2023/10/09 01:12:43;;;;;;;0.00;0.00;;;12.70;99.90;;;;;;5085209;28;20191;-61
2023/10/09 01:15:17;;;;;;;0.00;0.00;;;12.60;99.90;;;;;;5093971;28;20180;-60
2023/10/09 01:17:45;;;;;;;0.03;0.03;;;12.70;99.90;;;;;;5076507;28;20181;-61
2023/10/09 01:20:22;;;;;;;0.00;0.00;;;12.60;99.90;;;;;;5093459;28;20186;-61
2023/10/09 01:22:50;;;;;;;0.00;0.00;;;12.60;99.90;;;;;;5093621;28;20212;-61
2023/10/09 01:25:16;;;;;;;0.00;0.00;;;12.70;99.90;;;;;;5093227;28;20226;-60
2023/10/09 01:27:43;;;;;;;0.00;0.00;;;12.70;99.90;;;;;;5093471;28;20662;-60
2023/10/09 01:30:13;;;;;;;0.00;0.00;;;12.70;99.90;;;;;;5093623;28;20204;-61
2023/10/09 01:32:40;;;;;;;0.85;0.73;;;12.70;99.90;;;;;;5093397;28;20181;-61
2023/10/09 01:35:14;;;;;;;0.00;0.00;;;12.80;99.90;;;;;;5093345;28;20176;-62
2023/10/09 01:37:43;;;;;;;0.00;0.00;;;12.80;99.90;;;;;;5092155;28;20263;-61
2023/10/09 01:40:35;;;;;;;0.00;0.00;;;12.80;99.90;;;;;;5086840;28;20549;-61
2023/10/09 01:43:03;;;;;;;0.00;0.00;;;12.80;99.90;;;;;;5093373;28;20674;-61
2023/10/09 01:45:29;;;;;;;0.08;0.08;;;12.80;99.90;;;;;;5092693;28;20220;-61
2023/10/09 01:47:55;;;;;;;0.00;0.00;;;12.80;99.90;;;;;;5093408;28;20176;-62
2023/10/09 01:50:24;;;;;;;0.00;0.00;;;12.80;99.90;;;;;;5093192;28;20191;-61
2023/10/09 01:52:51;;;;;;;0.10;0.10;;;12.80;99.90;;;;;;5093204;28;20190;-61
2023/10/09 01:55:34;;;;;;;0.00;0.00;;;12.80;99.90;;;;;;5093031;28;20180;-61
2023/10/09 01:58:05;;;;;;;0.00;0.00;;;12.80;99.90;;;;;;5078749;28;20841;-61
2023/10/09 02:00:42;;;;;;;0.00;0.00;;;12.80;99.90;;;;;;5093091;28;20186;-61
2023/10/09 02:03:12;;;;;;;0.00;0.00;;;12.80;99.90;;;;;;5091834;28;20342;-62
2023/10/09 02:05:39;;;;;;;0.00;0.00;;;12.80;99.90;;;;;;5092473;28;20271;-62
2023/10/09 02:08:05;;;;;;;0.00;0.00;;;12.80;99.90;;;;;;5092625;28;20515;-62
2023/10/09 02:10:31;;;;;;;0.00;0.00;;;12.80;99.90;;;;;;5092659;28;20263;-61
2023/10/09 02:12:59;;;;;;;0.20;0.20;;;12.80;99.90;;;;;;5092475;28;20267;-63
2023/10/09 02:15:51;;;;;;;0.00;0.00;;;12.80;99.90;;;;;;5092127;28;20658;-62
2023/10/09 02:18:39;;;;;;;0.00;0.00;;;12.80;99.90;;;;;;5092550;28;20248;-62
2023/10/09 02:23:49;;;;;;;0.00;0.00;;;12.90;99.90;;;;;;5091923;28;20200;-62
2023/10/09 02:29:00;;;;;;;0.20;0.20;;;12.80;99.90;;;;;;5091531;28;20171;-62
2023/10/09 02:31:41;;;;;;;0.00;0.00;;;12.80;99.90;;;;;;5112779;28;20619;-60
2023/10/09 02:34:12;;;;;;;0.00;0.00;;;12.90;99.90;;;;;;5092803;28;20221;-60
2023/10/09 02:36:41;;;;;;;0.00;0.00;;;12.90;99.90;;;;;;5092477;28;20665;-61
2023/10/09 02:39:23;;;;;;;0.13;0.13;;;12.80;99.90;;;;;;5092200;28;20244;-61
2023/10/09 02:42:06;;;;;;;0.10;0.10;;;12.80;99.90;;;;;;5072216;28;20181;-62
2023/10/09 02:44:39;;;;;;;0.00;0.00;;;12.80;99.90;;;;;;5082437;28;20218;-63
2023/10/09 02:47:11;;;;;;;0.00;0.00;;;12.80;99.90;;;;;;5112636;28;20656;-61
2023/10/09 02:49:39;;;;;;;0.00;0.00;;;12.80;99.90;;;;;;5112543;28;20635;-63
2023/10/09 02:52:07;;;;;;;0.38;0.38;;;12.80;99.90;;;;;;5112647;28;20270;-61
2023/10/09 02:54:41;;;;;;;0.00;0.00;;;12.80;99.90;;;;;;5112686;28;20349;-62
2023/10/09 02:57:07;;;;;;;0.08;0.08;;;12.80;99.90;;;;;;5112651;28;20175;-61
2023/10/09 02:59:38;;;;;;;0.00;0.00;;;12.90;99.90;;;;;;5110749;28;20186;-61
2023/10/09 03:02:04;;;;;;;0.00;0.00;;;12.80;99.90;;;;;;5113005;28;20210;-62
2023/10/09 03:04:29;;;;;;;0.00;0.00;;;12.80;99.90;;;;;;5112759;28;20243;-61
2023/10/09 03:06:57;;;;;;;0.00;0.00;;;12.80;99.90;;;;;;5112470;28;20206;-61
2023/10/09 03:09:29;;;;;;;0.00;0.00;;;12.80;99.90;;;;;;5112423;28;20183;-62
2023/10/09 03:12:02;;;;;;;0.30;0.30;;;12.90;99.90;;;;;;5112293;28;20172;-61
2023/10/09 03:14:28;;;;;;;0.00;0.00;;;12.90;99.90;;;;;;5112202;28;20218;-61
2023/10/09 03:16:58;;;;;;;0.00;0.00;;;12.80;99.90;;;;;;5112211;28;20174;-61
2023/10/09 03:19:31;;;;;;;0.15;0.15;;;12.80;99.90;;;;;;5097216;28;20222;-61
2023/10/09 03:21:57;;;;;;;0.00;0.00;;;12.80;99.90;;;;;;5091180;28;20576;-61
2023/10/09 03:24:24;;;;;;;0.13;0.13;;;12.80;99.90;;;;;;5090143;28;20671;-61
2023/10/09 03:26:55;;;;;;;0.00;0.00;;;12.80;99.90;;;;;;5091802;28;20546;-62
2023/10/09 03:29:22;;;;;;;0.00;0.00;;;12.80;99.90;;;;;;5071477;28;20202;-61
2023/10/09 03:31:50;;;;;;;0.00;0.00;;;12.70;99.90;;;;;;5078478;28;20172;-62
2023/10/09 03:34:16;;;;;;;0.10;0.10;;;12.80;99.90;;;;;;5090985;28;20647;-60
2023/10/09 03:36:43;;;;;;;0.00;0.00;;;12.80;99.90;;;;;;5090684;28;20188;-61
2023/10/09 03:39:24;;;;;;;0.00;0.00;;;12.80;99.90;;;;;;5090565;28;20227;-62
2023/10/09 03:41:50;;;;;;;0.00;0.00;;;12.80;99.90;;;;;;5080833;28;20191;-62
2023/10/09 03:44:18;;;;;;;0.00;0.00;;;12.80;99.90;;;;;;5089112;28;20698;-63
2023/10/09 03:46:44;;;;;;;0.00;0.00;;;12.80;99.90;;;;;;5090755;28;20191;-61
2023/10/09 03:49:15;;;;;;;0.00;0.00;;;12.80;99.90;;;;;;5089435;28;20172;-62
2023/10/09 03:51:42;;;;;;;0.25;0.25;;;12.80;99.90;;;;;;5091022;28;20187;-62
2023/10/09 03:54:08;;;;;;;1.33;0.85;;;12.80;99.90;;;;;;5106749;28;20171;-61
2023/10/09 03:56:34;;;;;;;0.00;0.00;;;12.80;99.90;;;;;;5089499;28;20776;-63
2023/10/09 03:59:01;;;;;;;0.00;0.00;;;12.80;99.90;;;;;;5091006;28;20180;-61
2023/10/09 04:03:55;;;;;;;0.00;0.00;;;12.80;99.90;;;;;;5090176;28;20215;-60
2023/10/09 04:06:22;;;;;;;0.00;0.00;;;12.80;99.90;;;;;;5090892;28;20199;-60
2023/10/09 04:08:50;;;;;;;0.00;0.00;;;12.80;99.90;;;;;;5090952;28;20187;-61
2023/10/09 04:11:16;;;;;;;0.00;0.00;;;12.80;99.90;;;;;;5091068;28;20685;-61
2023/10/09 04:13:49;;;;;;;0.00;0.00;;;12.80;99.90;;;;;;5090946;28;20184;-61
2023/10/09 04:18:56;;;;;;;0.00;0.00;;;12.70;99.90;;;;;;5070801;28;20578;-61
2023/10/09 04:21:35;;;;;;;3.13;0.80;;;12.70;99.90;;;;;;5070838;28;20212;-61
2023/10/09 04:26:44;;;;;;;0.00;0.00;;;12.60;99.90;;;;;;5070765;28;20180;-61
2023/10/09 04:32:01;;;;;;;0.00;0.00;;;12.60;99.90;;;;;;5071080;28;20195;-61
2023/10/09 04:37:36;;;;;;;0.13;0.13;;;12.50;99.90;;;;;;5070643;28;20183;-61
2023/10/09 04:39:47;;;;;;;0.00;0.00;;;12.60;99.90;;;;;;5075011;28;20230;-61
2023/10/09 04:45:19;;;;;;;0.00;0.00;;;12.60;99.90;;;;;;5090938;28;20207;-61
2023/10/09 04:48:06;;;;;;;0.05;0.05;;;12.60;99.90;;;;;;5090982;28;20548;-61
2023/10/09 04:53:22;;;;;;;0.00;0.00;;;12.60;99.90;;;;;;5091328;28;20180;-61
2023/10/09 04:55:55;;;;;;;0.05;0.05;;;12.60;99.90;;;;;;5094589;28;20658;-60
2023/10/09 04:58:27;;;;;;;0.15;0.15;;;12.60;99.90;;;;;;5094534;28;20168;-61
2023/10/09 05:03:28;;;;;;;0.00;0.00;;;12.60;99.90;;;;;;5094600;28;20300;-61
2023/10/09 05:05:59;;;;;;;0.00;0.00;;;12.60;99.90;;;;;;5094283;28;20224;-61
2023/10/09 05:11:27;;;;;;;0.00;0.00;;;12.60;99.90;;;;;;5094571;28;20533;-60
2023/10/09 05:16:25;;;;;;;0.20;0.20;;;12.70;99.90;;;;;;5094319;28;20650;-61
2023/10/09 05:18:59;;;;;;;0.00;0.00;;;12.70;99.90;;;;;;5094125;28;20191;-61
2023/10/09 05:21:36;;;;;;;0.00;0.00;;;12.80;99.90;;;;;;5094085;28;20686;-61
2023/10/09 05:35:06;;;;;;;0.00;0.00;;;12.80;99.90;;;;;;5093828;28;20704;-61
2023/10/09 05:37:33;;;;;;;0.00;0.00;;;12.80;99.90;;;;;;5093768;28;20537;-61
2023/10/09 05:47:53;;;;;;;0.10;0.10;;;12.90;99.90;;;;;;5093739;28;21083;-61
2023/10/09 06:03:53;;;;;;;1.17;0.73;;;13.00;99.90;;;;;;5091665;28;20260;-61
2023/10/09 06:06:44;;;;;;;0.03;0.03;;;13.10;99.90;;;;;;5093012;28;20539;-61
2023/10/09 06:11:49;;;;;;;0.08;0.08;;;13.10;99.90;;;;;;5092967;28;20236;-61
2023/10/09 06:17:01;;;;;;;0.00;0.00;;;13.20;99.90;;;;;;5093194;28;20228;-61
2023/10/09 06:19:28;;;;;;;0.05;0.05;;;13.30;99.90;;;;;;5092951;28;20184;-61
2023/10/09 06:30:23;;;;;;;1.92;1.77;;;13.40;99.90;;;;;;5091667;28;20279;-61
2023/10/09 06:32:50;;;;;;;0.00;0.00;;;13.50;99.90;;;;;;5092672;28;20539;-62
2023/10/09 06:35:18;;;;;;;0.00;0.00;;;13.50;99.90;;;;;;5092719;28;20168;-61
2023/10/09 06:59:24;;;;;;;0.00;0.00;;;14.20;99.90;;;;;;5091022;28;20533;-62
2023/10/09 07:02:25;;;;;;;0.00;0.00;;;14.30;99.90;;;;;;5092309;28;20634;-61
2023/10/09 07:07:14;;;;;;;0.00;0.00;;;14.50;99.90;;;;;;5092070;28;20160;-62
2023/10/09 07:09:43;;;;;;;0.00;0.00;;;14.60;99.90;;;;;;5090697;28;20646;-61
2023/10/09 07:12:27;;;;;;;0.00;0.00;;;14.70;99.90;;;;;;5092082;28;20164;-61
2023/10/09 07:20:15;;;;;;;0.00;0.00;;;14.90;99.90;;;;;;5091964;28;20172;-61
2023/10/09 07:22:52;;;;;;;0.00;0.00;;;14.90;99.90;;;;;;5091735;28;20251;-61
2023/10/09 07:28:18;;;;;;;1.95;1.30;;;15.00;99.90;;;;;;5092168;28;20725;-62
2023/10/09 07:30:43;;;;;;;0.00;0.00;;;15.10;99.90;;;;;;5091792;28;20205;-62
2023/10/09 07:38:08;;;;;;;1.00;0.98;;;15.30;99.90;;;;;;5091442;28;20215;-61
2023/10/09 07:40:56;;;;;;;0.00;0.00;;;15.40;99.90;;;;;;5090385;28;20176;-61
2023/10/09 07:43:31;;;;;;;0.55;0.55;;;15.50;99.90;;;;;;5091511;28;20182;-61
2023/10/09 07:48:25;;;;;;;0.00;0.00;;;15.80;99.90;;;;;;5091539;28;20169;-62
2023/10/09 07:50:57;;;;;;;0.10;0.10;;;16.00;99.90;;;;;;5091506;28;20191;-62
2023/10/09 07:53:29;;;;;;;0.00;0.00;;;16.00;99.90;;;;;;5091396;28;20643;-62
2023/10/09 07:55:56;;;;;;;0.00;0.00;;;16.10;99.90;;;;;;5091461;28;20176;-62
2023/10/09 07:58:25;;;;;;;0.35;0.20;;;16.20;99.90;;;;;;5091332;28;20243;-62
2023/10/09 08:03:23;;;;;;;0.10;0.10;;;16.30;99.90;;;;;;5091422;28;20172;-62
2023/10/09 08:05:52;;;;;;;0.00;0.00;;;16.40;99.90;;;;;;5091342;28;20240;-62
2023/10/09 08:13:49;;;;;;;0.05;0.05;;;16.60;99.90;;;;;;5091563;28;20213;-62
2023/10/09 08:16:21;;;;;;;0.00;0.00;;;16.70;99.90;;;;;;5091199;28;20221;-61
2023/10/09 08:18:51;;;;;;;0.10;0.10;;;16.80;99.90;;;;;;5091050;28;20228;-61
2023/10/09 08:23:48;;;;;;;0.00;0.00;;;17.00;99.90;;;;;;5090872;28;20268;-61
2023/10/09 08:26:32;;;;;;;0.00;0.00;;;17.00;99.90;;;;;;5091198;28;20180;-62
2023/10/09 08:29:20;;;;;;;0.00;0.00;;;17.00;99.90;;;;;;5094366;28;20180;-62
2023/10/09 08:31:46;;;;;;;0.17;0.17;;;17.10;99.90;;;;;;5094813;28;20562;-62
2023/10/09 08:34:23;;;;;;;0.38;0.30;;;17.20;99.90;;;;;;5095063;28;20168;-62
2023/10/09 08:36:52;;;;;;;0.03;0.03;;;17.20;99.90;;;;;;5094999;28;20233;-62
2023/10/09 08:39:25;;;;;;;0.00;0.00;;;17.30;99.90;;;;;;5094563;28;20342;-62
2023/10/09 08:41:52;;;;;;;0.00;0.00;;;17.50;99.90;;;;;;5094981;28;20188;-62
2023/10/09 08:44:22;;;;;;;0.00;0.00;;;17.50;99.90;;;;;;5094817;28;20303;-62
2023/10/09 08:46:48;;;;;;;0.00;0.00;;;17.60;99.90;;;;;;5094891;28;20263;-62
2023/10/09 08:49:14;;;;;;;0.00;0.00;;;17.70;99.90;;;;;;5095005;28;20180;-62
2023/10/09 08:51:42;;;;;;;0.00;0.00;;;17.70;99.90;;;;;;5094713;28;20673;-62
2023/10/09 08:54:11;;;;;;;0.32;0.32;;;17.90;99.90;;;;;;5094767;28;20232;-62
2023/10/09 08:56:39;;;;;;;0.13;0.13;;;18.00;99.90;;;;;;5094583;28;20184;-61
2023/10/09 08:59:05;;;;;;;0.63;0.63;;;18.10;99.90;;;;;;5094694;28;20263;-61
2023/10/09 09:01:34;;;;;;;0.03;0.03;;;18.20;99.90;;;;;;5094612;28;20306;-62
2023/10/09 09:04:02;;;;;;;0.00;0.00;;;18.30;99.90;;;;;;5094295;28;20205;-62
2023/10/09 09:06:41;;;;;;;0.00;0.00;;;18.40;99.90;;;;;;5094365;28;20180;-62
2023/10/09 09:09:15;;;;;;;0.10;0.10;;;18.50;99.90;;;;;;5094597;28;20183;-61
2023/10/09 09:11:52;;;;;;;0.00;0.00;;;18.60;99.80;;;;;;5094340;28;20259;-61
2023/10/09 09:14:22;;;;;;;0.00;0.00;;;18.80;99.50;;;;;;5094277;28;20547;-61
2023/10/09 09:16:52;;;;;;;0.08;0.08;;;18.90;99.50;;;;;;5094272;28;20175;-61
2023/10/09 09:19:17;;;;;;;0.00;0.00;;;19.00;99.30;;;;;;5094320;28;20184;-61
2023/10/09 09:22:11;;;;;;;0.00;0.00;;;19.20;99.40;;;;;;5094213;28;20213;-62
2023/10/09 09:24:37;;;;;;;0.52;0.52;;;19.40;99.20;;;;;;5093975;28;20235;-62
2023/10/09 09:27:12;;;;;;;0.00;0.00;;;19.50;99.20;;;;;;5094112;28;20188;-62
2023/10/09 09:29:39;;;;;;;0.00;0.00;;;19.60;98.90;;;;;;5093869;28;20186;-62
2023/10/09 09:32:20;;;;;;;0.20;0.20;;;19.80;98.80;;;;;;5094053;28;20187;-62
2023/10/09 09:34:54;;;;;;;0.00;0.00;;;19.80;98.70;;;;;;5093883;28;20194;-62
2023/10/09 09:37:52;;;;;;;0.00;0.00;;;19.90;98.50;;;;;;5094021;28;20180;-62
2023/10/09 09:40:32;;;;;;;0.00;0.00;;;20.00;98.60;;;;;;5092525;28;20539;-62
2023/10/09 09:43:04;;;;;;;0.00;0.00;;;20.10;98.50;;;;;;5093797;28;20184;-62
2023/10/09 09:45:32;;;;;;;0.00;0.00;;;20.20;98.20;;;;;;5093565;28;20645;-61
2023/10/09 09:48:05;;;;;;;0.00;0.00;;;20.30;98.00;;;;;;5093710;28;20226;-62
2023/10/09 09:50:38;;;;;;;0.00;0.00;;;20.40;98.30;;;;;;5093731;28;20226;-62
2023/10/09 09:53:08;;;;;;;0.00;0.00;;;20.50;98.00;;;;;;5093717;28;20199;-62
2023/10/09 09:55:41;;;;;;;0.00;0.00;;;20.60;97.50;;;;;;5093614;28;20535;-62
2023/10/09 09:58:18;;;;;;;0.10;0.10;;;20.70;97.80;;;;;;5093505;28;20686;-62
2023/10/09 10:00:44;;;;;;;0.00;0.00;;;20.70;97.40;;;;;;5093708;28;20172;-62
2023/10/09 10:03:18;;;;;;;0.00;0.00;;;20.70;97.40;;;;;;5093530;28;20622;-63
2023/10/09 10:05:48;;;;;;;0.00;0.00;;;20.70;97.60;;;;;;5093349;28;20705;-62
2023/10/09 10:08:19;;;;;;;0.00;0.00;;;20.80;97.70;;;;;;5093469;28;20180;-62
2023/10/09 10:10:53;;;;;;;0.00;0.00;;;20.80;97.60;;;;;;5093298;28;20177;-63
2023/10/09 10:13:42;;;;;;;0.00;0.00;;;20.70;97.10;;;;;;5093171;28;20263;-61
2023/10/09 10:16:13;;;;;;;0.00;0.00;;;20.60;97.30;;;;;;5090117;28;20180;-61
2023/10/09 10:19:21;;;;;;;0.00;0.00;;;20.50;97.30;;;;;;5092955;28;20267;-62
2023/10/09 10:21:52;;;;;;;0.10;0.10;;;20.40;97.70;;;;;;5093173;28;20223;-61
2023/10/09 10:24:51;;;;;;;0.00;0.00;;;20.40;98.00;;;;;;5092952;28;20658;-61
2023/10/09 10:27:24;;;;;;;0.00;0.00;;;20.30;98.20;;;;;;5092913;28;20647;-62
2023/10/09 10:30:10;;;;;;;0.00;0.00;;;20.40;98.30;;;;;;5092883;28;20196;-61
2023/10/09 10:32:57;;;;;;;0.00;0.00;;;20.50;98.30;;;;;;5092822;28;20176;-61
2023/10/09 10:35:32;;;;;;;0.03;0.03;;;20.60;97.90;;;;;;5092934;28;20164;-62
2023/10/09 10:40:40;;;;;;;0.10;0.10;;;20.90;97.50;;;;;;5092794;28;20183;-62
2023/10/09 10:43:13;;;;;;;0.20;0.20;;;21.10;97.30;;;;;;5092923;28;20180;-61
2023/10/09 10:45:45;;;;;;;0.00;0.00;;;21.30;97.20;;;;;;5092332;28;20347;-61
2023/10/09 10:48:37;;;;;;;0.00;0.00;;;21.60;97.00;;;;;;5092720;28;20191;-61
2023/10/09 10:51:06;;;;;;;0.00;0.00;;;21.80;96.60;;;;;;5092488;28;20225;-62
2023/10/09 10:53:47;;;;;;;0.10;0.10;;;21.80;96.30;;;;;;5092536;28;20168;-61
2023/10/09 10:58:53;;;;;;;0.08;0.08;;;21.70;96.20;;;;;;5092333;28;20217;-61
2023/10/09 11:01:24;;;;;;;0.00;0.00;;;21.50;96.30;;;;;;5092237;28;20179;-61
2023/10/09 11:03:55;;;;;;;0.05;0.05;;;21.30;96.40;;;;;;5092269;28;20215;-61
2023/10/09 11:06:35;;;;;;;0.00;0.00;;;21.20;97.00;;;;;;5090909;28;20187;-61
2023/10/09 11:09:09;;;;;;;0.00;0.00;;;21.00;97.10;;;;;;5092381;28;20176;-61
2023/10/09 11:11:42;;;;;;;0.85;0.38;;;20.90;97.70;;;;;;5092227;28;20539;-62
2023/10/09 11:14:14;;;;;;;0.00;0.00;;;20.80;97.70;;;;;;5092241;28;20546;-61
2023/10/09 11:16:47;;;;;;;0.00;0.00;;;20.80;97.80;;;;;;5091884;28;20191;-62
2023/10/09 11:24:34;;;;;;;0.22;0.22;;;21.10;98.60;;;;;;5091975;28;20203;-62
2023/10/09 11:27:05;;;;;;;0.00;0.00;;;21.30;98.30;;;;;;5091938;28;20688;-62
2023/10/09 11:32:18;;;;;;;0.00;0.00;;;21.50;97.30;;;;;;5092063;28;20180;-62
2023/10/09 11:34:53;;;;;;;0.00;0.00;;;21.60;97.40;;;;;;5091820;28;20263;-62
2023/10/09 11:39:57;;;;;;;0.00;0.00;;;21.70;97.70;;;;;;5091937;28;20196;-62
2023/10/09 11:42:37;;;;;;;0.00;0.00;;;21.80;97.30;;;;;;5091886;28;20172;-62
2023/10/09 11:45:19;;;;;;;0.00;0.00;;;22.00;97.30;;;;;;5091813;28;20212;-62
2023/10/09 11:47:56;;;;;;;0.00;0.00;;;22.20;97.30;;;;;;5091757;28;20580;-62
2023/10/09 11:50:43;;;;;;;0.00;0.00;;;22.40;96.70;;;;;;5091733;28;20212;-62
2023/10/09 11:53:19;;;;;;;0.00;0.00;;;22.40;96.60;;;;;;5092020;28;20176;-62
2023/10/09 11:55:49;;;;;;;0.98;0.93;;;22.50;96.70;;;;;;5091645;28;20168;-62
2023/10/09 11:58:22;;;;;;;0.10;0.10;;;22.60;96.50;;;;;;5091706;28;20275;-62
2023/10/09 12:01:04;;;;;;;0.00;0.00;;;22.60;96.40;;;;;;5091621;28;20255;-62
2023/10/09 12:03:31;;;;;;;0.00;0.00;;;22.80;96.30;;;;;;5096966;28;20184;-62
2023/10/09 12:05:58;;;;;;;0.52;0.52;;;23.00;96.10;;;;;;5098349;28;20219;-62
2023/10/09 12:08:26;;;;;;;0.17;0.17;;;23.20;95.00;;;;;;5098439;28;20176;-62
2023/10/09 12:10:54;;;;;;;0.00;0.00;;;23.40;95.00;;;;;;5098401;28;20195;-62
2023/10/09 12:13:22;;;;;;;0.20;0.20;;;23.60;94.80;;;;;;5098006;28;20639;-62
2023/10/09 12:15:48;;;;;;;0.00;0.00;;;23.80;94.90;;;;;;5098174;28;20175;-62
2023/10/09 12:18:18;;;;;;;0.00;0.00;;;23.90;94.10;;;;;;5098204;28;20534;-62
2023/10/09 12:20:50;;;;;;;0.10;0.10;;;24.00;94.00;;;;;;5098003;28;20241;-62
2023/10/09 12:23:20;;;;;;;0.00;0.00;;;24.10;93.80;;;;;;5098282;28;20191;-62
2023/10/09 12:25:51;;;;;;;0.00;0.00;;;24.10;93.30;;;;;;5097994;28;20211;-61
2023/10/09 12:28:20;;;;;;;0.00;0.00;;;24.00;93.50;;;;;;5098071;28;20171;-62
2023/10/09 12:30:50;;;;;;;0.00;0.00;;;24.00;93.20;;;;;;5097974;28;20256;-62
2023/10/09 12:33:16;;;;;;;0.00;0.00;;;24.10;93.10;;;;;;5098108;28;20165;-62
2023/10/09 12:35:45;;;;;;;0.00;0.00;;;24.00;92.60;;;;;;5097780;28;20180;-62
2023/10/09 12:38:12;;;;;;;0.00;0.00;;;24.00;92.50;;;;;;5097780;28;20252;-61
2023/10/09 12:40:43;;;;;;;0.00;0.00;;;24.00;92.40;;;;;;5097783;28;21056;-62
2023/10/09 12:43:17;;;;;;;0.00;0.00;;;24.10;92.90;;;;;;5097995;28;20172;-62
2023/10/09 12:45:42;;;;;;;0.00;0.00;;;24.20;92.20;;;;;;5097635;28;20686;-61
2023/10/09 12:48:12;;;;;;;0.00;0.00;;;24.10;91.70;;;;;;5097943;28;20225;-61
2023/10/09 12:50:41;;;;;;;0.00;0.00;;;24.00;91.60;;;;;;5097612;28;20654;-61
2023/10/09 12:53:08;;;;;;;0.40;0.40;;;24.00;91.80;;;;;;5097762;28;20631;-61
2023/10/09 12:55:40;;;;;;;0.00;0.00;;;23.90;91.50;;;;;;5097832;28;20259;-61
2023/10/09 12:58:07;;;;;;;0.00;0.00;;;23.90;91.60;;;;;;5097911;28;20184;-61
2023/10/09 13:00:43;;;;;;;0.00;0.00;;;23.90;92.10;;;;;;5097690;28;20211;-61
2023/10/09 13:03:18;;;;;;;0.00;0.00;;;23.90;92.00;;;;;;5097756;28;20191;-62
2023/10/09 13:05:52;;;;;;;0.00;0.00;;;23.90;92.20;;;;;;5097559;28;20242;-61
2023/10/09 13:08:31;;;;;;;0.10;0.10;;;23.90;92.10;;;;;;5097531;28;20200;-61
2023/10/09 13:11:04;;;;;;;0.22;0.22;;;23.90;92.00;;;;;;5097616;28;20191;-61
2023/10/09 13:13:50;;;;;;;0.00;0.00;;;23.80;91.20;;;;;;5096743;28;20627;-61
2023/10/09 13:16:22;;;;;;;0.00;0.00;;;23.80;90.50;;;;;;5094444;28;20191;-61
2023/10/09 13:18:52;;;;;;;0.10;0.00;;;23.70;90.10;;;;;;5094299;28;20176;-61
2023/10/09 13:21:19;;;;;;;0.00;0.00;;;23.60;89.20;;;;;;5093786;28;20187;-61
2023/10/09 13:23:49;;;;;;;0.30;0.30;;;23.60;88.40;;;;;;5089978;28;20225;-63
2023/10/09 13:26:18;;;;;;;0.40;0.38;;;23.50;87.60;;;;;;5095137;28;20184;-63
2023/10/09 13:28:48;;;;;;;0.00;0.00;;;23.50;87.50;;;;;;5094260;28;20184;-61
2023/10/09 13:31:15;;;;;;;0.00;0.00;;;23.50;85.80;;;;;;5094073;28;20173;-62
2023/10/09 13:33:42;;;;;;;0.00;0.00;;;23.50;84.70;;;;;;5093854;28;20168;-62
2023/10/09 13:36:19;;;;;;;0.00;0.00;;;23.50;84.70;;;;;;5094111;28;20215;-62
2023/10/09 13:38:46;;;;;;;0.00;0.00;;;23.60;84.80;;;;;;5093693;28;20238;-62
2023/10/09 13:41:12;;;;;;;0.05;0.00;;;23.70;84.20;;;;;;5092270;28;20536;-63
2023/10/09 13:43:42;;;;;;;0.10;0.10;;;23.80;83.50;;;;;;5093186;28;20911;-63
2023/10/09 13:46:11;;;;;;;0.00;0.00;;;23.90;82.50;;;;;;5094011;28;20199;-62
2023/10/09 13:48:41;;;;;;;0.00;0.00;;;24.00;82.30;;;;;;5093867;28;20169;-62
2023/10/09 13:51:09;;;;;;;0.00;0.00;;;24.00;82.90;;;;;;5093759;28;20189;-62
2023/10/09 13:53:44;;;;;;;0.32;0.32;;;23.90;76.80;;;;;;5093989;28;20396;-62
2023/10/09 13:56:15;;;;;;;0.00;0.00;;;23.90;75.60;;;;;;5093620;28;20184;-60
2023/10/09 13:58:42;;;;;;;0.00;0.00;;;23.80;73.10;;;;;;5093384;28;20181;-61
2023/10/09 14:01:09;;;;;;;0.05;0.05;;;23.80;72.40;;;;;;5093691;28;20203;-62
2023/10/09 14:03:35;;;;;;;0.43;0.43;;;23.90;74.10;;;;;;5093311;28;20200;-63
2023/10/09 14:06:10;;;;;;;0.00;0.00;;;23.90;74.00;;;;;;5093565;28;20735;-63
2023/10/09 14:08:41;;;;;;;0.13;0.13;;;24.00;72.70;;;;;;5093438;28;20205;-63
2023/10/09 14:11:13;;;;;;;0.00;0.00;;;24.10;73.80;;;;;;5092408;28;20184;-66
2023/10/09 14:13:42;;;;;;;0.00;0.00;;;24.00;73.30;;;;;;5092391;28;20630;-66
2023/10/09 14:16:23;;;;;;;0.00;0.00;;;24.00;73.10;;;;;;5092509;28;20267;-63
2023/10/09 14:18:53;;;;;;;0.00;0.00;;;23.90;73.30;;;;;;5092919;28;20257;-65
2023/10/09 14:21:19;;;;;;;0.00;0.00;;;23.90;73.20;;;;;;5092877;28;20180;-65
2023/10/09 14:23:47;;;;;;;0.00;0.00;;;23.90;74.10;;;;;;5092401;28;20260;-62
2023/10/09 14:26:13;;;;;;;0.20;0.20;;;23.80;75.40;;;;;;5091068;28;20225;-61
2023/10/09 14:28:38;;;;;;;0.00;0.00;;;23.80;75.00;;;;;;5111630;28;20175;-61
2023/10/09 14:31:11;;;;;;;0.00;0.00;;;23.80;75.40;;;;;;5101885;28;20191;-62
2023/10/09 14:33:36;;;;;;;0.00;0.00;;;23.70;76.60;;;;;;5092552;28;20238;-61
2023/10/09 14:36:02;;;;;;;0.00;0.00;;;23.60;76.30;;;;;;5091862;28;20169;-63
2023/10/09 14:38:32;;;;;;;0.10;0.10;;;23.60;76.70;;;;;;5090870;28;20204;-62
2023/10/09 14:40:59;;;;;;;0.17;0.17;;;23.60;77.60;;;;;;5088906;28;20715;-62
2023/10/09 14:43:28;;;;;;;0.00;0.00;;;23.50;77.80;;;;;;5091203;28;20196;-61
2023/10/09 14:45:54;;;;;;;0.00;0.00;;;23.50;78.70;;;;;;5091663;28;20219;-61
2023/10/09 14:48:25;;;;;;;0.00;0.00;;;23.50;79.40;;;;;;5091993;28;20184;-61
2023/10/09 14:51:04;;;;;;;0.00;0.00;;;23.50;79.70;;;;;;5087893;28;20229;-62
2023/10/09 14:53:30;;;;;;;0.00;0.00;;;23.40;80.10;;;;;;5082943;28;20180;-61
2023/10/09 14:55:56;;;;;;;0.10;0.10;;;;;;;;;;5091030;28;20646;-61
2023/10/09 14:58:24;;;;;;;0.00;0.00;;;23.50;79.40;;;;;;5099066;28;20672;-61
2023/10/09 15:00:54;;;;;;;0.10;0.10;;;23.50;80.40;;;;;;5112321;28;20716;-62
2023/10/09 15:03:19;;;;;;;0.00;0.00;;;23.50;80.20;;;;;;5097347;28;20176;-61
2023/10/09 15:05:46;;;;;;;0.05;0.05;;;23.50;80.90;;;;;;5091767;28;20578;-61
2023/10/09 15:08:12;;;;;;;0.00;0.00;;;23.50;81.00;;;;;;5091894;28;20173;-61
2023/10/09 15:10:48;;;;;;;0.00;0.00;;;23.40;81.20;;;;;;5091870;28;20218;-61
2023/10/09 15:13:16;;;;;;;0.00;0.00;;;23.40;82.00;;;;;;5091825;28;20176;-61
2023/10/09 15:15:45;;;;;;;0.00;0.00;;;23.40;82.70;;;;;;5091310;28;20595;-62
2023/10/09 15:18:14;;;;;;;0.00;0.00;;;23.40;83.40;;;;;;5110107;28;20179;-61
2023/10/09 15:20:40;;;;;;;0.05;0.05;;;23.30;84.10;;;;;;5106310;28;20178;-61
2023/10/09 15:23:07;;;;;;;0.43;0.32;;;23.30;84.60;;;;;;5091621;28;20168;-61
2023/10/09 15:25:34;;;;;;;0.17;0.17;;;23.30;84.90;;;;;;5092501;28;20579;-61
2023/10/09 15:28:00;;;;;;;0.00;0.00;;;23.20;85.60;;;;;;5102102;28;20635;-62
2023/10/09 15:30:28;;;;;;;0.00;0.00;;;23.20;86.20;;;;;;5088619;28;20440;-62
2023/10/09 15:32:56;;;;;;;0.00;0.00;;;23.10;86.50;;;;;;5090069;28;20252;-62
2023/10/09 15:35:22;;;;;;;0.00;0.00;;;23.10;86.90;;;;;;5091838;28;20188;-62
2023/10/09 15:37:48;;;;;;;0.00;0.00;;;23.00;87.10;;;;;;5090074;28;20254;-62
2023/10/09 15:40:18;;;;;;;1.40;0.80;;;23.00;87.30;;;;;;5089670;28;20230;-61